sensor_id;sensor_type;location;lat;lon;timestamp;temperature;humidity
54796;DHT22;40693;43.884;20.340;2023-03-04T00:00:49;230.60;2252.80
54796;DHT22;40693;43.884;20.340;2023-03-04T00:03:15;230.60;2252.80
54796;DHT22;40693;43.884;20.340;2023-03-04T00:05:41;230.60;2252.80
54796;DHT22;40693;43.884;20.340;2023-03-04T00:08:07;231.10;2252.80
54796;DHT22;40693;43.884;20.340;2023-03-04T00:10:33;230.50;2252.80
54796;DHT22;40693;43.884;20.340;2023-03-04T00:12:59;230.60;2252.80
54796;DHT22;40693;43.884;20.340;2023-03-04T00:15:25;230.70;2252.80
54796;DHT22;40693;43.884;20.340;2023-03-04T00:17:50;230.60;2252.80
54796;DHT22;40693;43.884;20.340;2023-03-04T00:20:24;230.70;2252.80
54796;DHT22;40693;43.884;20.340;2023-03-04T00:22:49;230.70;2252.80
54796;DHT22;40693;43.884;20.340;2023-03-04T00:25:15;230.70;2252.80
54796;DHT22;40693;43.884;20.340;2023-03-04T00:27:41;230.70;2252.80
54796;DHT22;40693;43.884;20.340;2023-03-04T00:30:07;230.50;2252.80
54796;DHT22;40693;43.884;20.340;2023-03-04T00:32:33;230.90;2252.80
54796;DHT22;40693;43.884;20.340;2023-03-04T00:34:59;230.80;2252.80
54796;DHT22;40693;43.884;20.340;2023-03-04T00:37:25;230.70;2252.80
54796;DHT22;40693;43.884;20.340;2023-03-04T00:39:51;230.80;2252.80
54796;DHT22;40693;43.884;20.340;2023-03-04T00:42:17;230.80;2252.80
54796;DHT22;40693;43.884;20.340;2023-03-04T00:44:45;230.80;2252.80
54796;DHT22;40693;43.884;20.340;2023-03-04T00:47:11;230.80;2252.80
54796;DHT22;40693;43.884;20.340;2023-03-04T00:49:37;230.80;2252.80
54796;DHT22;40693;43.884;20.340;2023-03-04T00:52:03;230.80;2252.80
54796;DHT22;40693;43.884;20.340;2023-03-04T00:54:28;230.80;2252.80
54796;DHT22;40693;43.884;20.340;2023-03-04T00:56:54;230.80;2252.80
54796;DHT22;40693;43.884;20.340;2023-03-04T00:59:22;230.80;2252.80
54796;DHT22;40693;43.884;20.340;2023-03-04T01:01:48;230.80;2252.80
54796;DHT22;40693;43.884;20.340;2023-03-04T01:04:14;230.80;2252.80
54796;DHT22;40693;43.884;20.340;2023-03-04T01:06:42;230.80;2252.80
54796;DHT22;40693;43.884;20.340;2023-03-04T01:09:14;230.80;2252.80
54796;DHT22;40693;43.884;20.340;2023-03-04T01:11:45;230.80;2252.80
54796;DHT22;40693;43.884;20.340;2023-03-04T01:14:11;230.70;2252.80
54796;DHT22;40693;43.884;20.340;2023-03-04T01:16:37;230.60;2252.80
54796;DHT22;40693;43.884;20.340;2023-03-04T01:19:02;230.60;2252.80
54796;DHT22;40693;43.884;20.340;2023-03-04T01:21:28;230.70;2252.80
54796;DHT22;40693;43.884;20.340;2023-03-04T01:23:54;230.70;2252.80
54796;DHT22;40693;43.884;20.340;2023-03-04T01:26:32;230.70;2252.80
54796;DHT22;40693;43.884;20.340;2023-03-04T01:29:03;230.70;2252.80
54796;DHT22;40693;43.884;20.340;2023-03-04T01:31:28;230.70;2252.80
54796;DHT22;40693;43.884;20.340;2023-03-04T01:33:54;230.70;2252.80
54796;DHT22;40693;43.884;20.340;2023-03-04T01:36:23;230.70;2252.80
54796;DHT22;40693;43.884;20.340;2023-03-04T01:38:52;230.70;2252.80
54796;DHT22;40693;43.884;20.340;2023-03-04T01:41:25;230.70;2252.80
54796;DHT22;40693;43.884;20.340;2023-03-04T01:43:51;230.70;2252.80
54796;DHT22;40693;43.884;20.340;2023-03-04T01:46:18;230.70;2252.80
54796;DHT22;40693;43.884;20.340;2023-03-04T01:48:48;230.60;2252.80
54796;DHT22;40693;43.884;20.340;2023-03-04T01:51:24;230.60;2252.80
54796;DHT22;40693;43.884;20.340;2023-03-04T01:53:53;230.60;2252.80
54796;DHT22;40693;43.884;20.340;2023-03-04T01:56:38;230.60;2252.80
54796;DHT22;40693;43.884;20.340;2023-03-04T01:59:12;230.50;2252.80
54796;DHT22;40693;43.884;20.340;2023-03-04T02:01:38;230.50;2252.80
54796;DHT22;40693;43.884;20.340;2023-03-04T02:04:05;230.50;2252.80
54796;DHT22;40693;43.884;20.340;2023-03-04T02:06:45;230.50;2252.80
54796;DHT22;40693;43.884;20.340;2023-03-04T02:09:18;230.50;2252.80
54796;DHT22;40693;43.884;20.340;2023-03-04T02:11:45;230.40;2252.80
54796;DHT22;40693;43.884;20.340;2023-03-04T02:14:12;230.40;2252.80
54796;DHT22;40693;43.884;20.340;2023-03-04T02:16:38;205.70;2252.80
54796;DHT22;40693;43.884;20.340;2023-03-04T02:19:06;205.70;2252.80
54796;DHT22;40693;43.884;20.340;2023-03-04T02:21:37;205.70;2252.80
54796;DHT22;40693;43.884;20.340;2023-03-04T02:26:49;205.70;2252.80
54796;DHT22;40693;43.884;20.340;2023-03-04T02:29:23;205.70;2252.80
54796;DHT22;40693;43.884;20.340;2023-03-04T02:31:50;205.70;2252.80
54796;DHT22;40693;43.884;20.340;2023-03-04T02:34:21;205.60;2252.80
54796;DHT22;40693;43.884;20.340;2023-03-04T02:37:02;205.70;2252.80
54796;DHT22;40693;43.884;20.340;2023-03-04T02:39:41;230.40;2252.80
54796;DHT22;40693;43.884;20.340;2023-03-04T02:42:14;205.60;2252.80
54796;DHT22;40693;43.884;20.340;2023-03-04T02:44:44;205.50;2252.80
54796;DHT22;40693;43.884;20.340;2023-03-04T02:47:15;205.50;2252.80
54796;DHT22;40693;43.884;20.340;2023-03-04T02:49:48;205.50;2252.80
54796;DHT22;40693;43.884;20.340;2023-03-04T02:52:18;205.50;2252.80
54796;DHT22;40693;43.884;20.340;2023-03-04T02:54:47;205.50;2252.80
54796;DHT22;40693;43.884;20.340;2023-03-04T02:57:14;205.50;2252.80
54796;DHT22;40693;43.884;20.340;2023-03-04T02:59:40;205.50;2252.80
54796;DHT22;40693;43.884;20.340;2023-03-04T03:02:07;205.60;2252.80
54796;DHT22;40693;43.884;20.340;2023-03-04T03:04:36;205.70;2252.80
54796;DHT22;40693;43.884;20.340;2023-03-04T03:07:02;205.70;2252.80
54796;DHT22;40693;43.884;20.340;2023-03-04T03:09:31;205.70;2252.80
54796;DHT22;40693;43.884;20.340;2023-03-04T03:12:02;205.60;2252.80
54796;DHT22;40693;43.884;20.340;2023-03-04T03:14:28;205.60;2252.80
54796;DHT22;40693;43.884;20.340;2023-03-04T03:16:57;205.50;2252.80
54796;DHT22;40693;43.884;20.340;2023-03-04T03:19:28;205.50;2252.80
54796;DHT22;40693;43.884;20.340;2023-03-04T03:21:54;205.50;2252.80
54796;DHT22;40693;43.884;20.340;2023-03-04T03:24:20;205.50;2252.80
54796;DHT22;40693;43.884;20.340;2023-03-04T03:26:49;205.60;2252.80
54796;DHT22;40693;43.884;20.340;2023-03-04T03:29:14;205.60;2252.80
54796;DHT22;40693;43.884;20.340;2023-03-04T03:31:40;205.70;2252.80
54796;DHT22;40693;43.884;20.340;2023-03-04T03:34:06;205.70;2252.80
54796;DHT22;40693;43.884;20.340;2023-03-04T03:36:32;205.70;2252.80
54796;DHT22;40693;43.884;20.340;2023-03-04T03:39:00;205.70;2252.80
54796;DHT22;40693;43.884;20.340;2023-03-04T03:41:26;205.40;2252.80
54796;DHT22;40693;43.884;20.340;2023-03-04T03:43:52;205.70;2252.80
54796;DHT22;40693;43.884;20.340;2023-03-04T03:46:18;205.70;2252.80
54796;DHT22;40693;43.884;20.340;2023-03-04T03:48:43;205.60;2252.80
54796;DHT22;40693;43.884;20.340;2023-03-04T03:51:11;205.70;2252.80
54796;DHT22;40693;43.884;20.340;2023-03-04T03:53:40;205.70;2252.80
54796;DHT22;40693;43.884;20.340;2023-03-04T03:56:09;205.70;2252.80
54796;DHT22;40693;43.884;20.340;2023-03-04T03:58:35;205.70;2252.80
54796;DHT22;40693;43.884;20.340;2023-03-04T04:01:00;205.70;2252.80
54796;DHT22;40693;43.884;20.340;2023-03-04T04:03:26;205.70;2252.80
54796;DHT22;40693;43.884;20.340;2023-03-04T04:05:52;205.70;2252.80
54796;DHT22;40693;43.884;20.340;2023-03-04T04:08:23;205.70;2252.80
54796;DHT22;40693;43.884;20.340;2023-03-04T04:10:49;205.70;2252.80
54796;DHT22;40693;43.884;20.340;2023-03-04T04:13:15;205.60;2252.80
54796;DHT22;40693;43.884;20.340;2023-03-04T04:15:44;230.80;2252.80
54796;DHT22;40693;43.884;20.340;2023-03-04T04:18:10;205.60;2252.80
54796;DHT22;40693;43.884;20.340;2023-03-04T04:20:52;205.60;2252.80
54796;DHT22;40693;43.884;20.340;2023-03-04T04:23:18;205.50;2252.80
54796;DHT22;40693;43.884;20.340;2023-03-04T04:25:47;205.50;2252.80
54796;DHT22;40693;43.884;20.340;2023-03-04T04:28:13;204.90;2252.80
54796;DHT22;40693;43.884;20.340;2023-03-04T04:30:41;205.40;2252.80
54796;DHT22;40693;43.884;20.340;2023-03-04T04:33:08;205.40;2252.80
54796;DHT22;40693;43.884;20.340;2023-03-04T04:35:35;205.40;2252.80
54796;DHT22;40693;43.884;20.340;2023-03-04T04:38:06;205.40;2252.80
54796;DHT22;40693;43.884;20.340;2023-03-04T04:40:32;205.30;2252.80
54796;DHT22;40693;43.884;20.340;2023-03-04T04:42:58;205.30;2252.80
54796;DHT22;40693;43.884;20.340;2023-03-04T04:45:24;205.20;2252.80
54796;DHT22;40693;43.884;20.340;2023-03-04T04:47:51;205.20;2252.80
54796;DHT22;40693;43.884;20.340;2023-03-04T04:50:17;205.20;2252.80
54796;DHT22;40693;43.884;20.340;2023-03-04T04:52:42;205.20;2252.80
54796;DHT22;40693;43.884;20.340;2023-03-04T04:55:08;205.20;2252.80
54796;DHT22;40693;43.884;20.340;2023-03-04T04:57:35;205.20;2252.80
54796;DHT22;40693;43.884;20.340;2023-03-04T05:00:12;205.20;2252.80
54796;DHT22;40693;43.884;20.340;2023-03-04T05:02:43;205.30;2252.80
54796;DHT22;40693;43.884;20.340;2023-03-04T05:05:12;205.30;2252.80
54796;DHT22;40693;43.884;20.340;2023-03-04T05:07:40;205.30;2252.80
54796;DHT22;40693;43.884;20.340;2023-03-04T05:10:10;205.40;2252.80
54796;DHT22;40693;43.884;20.340;2023-03-04T05:12:39;205.50;2252.80
54796;DHT22;40693;43.884;20.340;2023-03-04T05:15:05;205.50;2252.80
54796;DHT22;40693;43.884;20.340;2023-03-04T05:17:31;205.50;2252.80
54796;DHT22;40693;43.884;20.340;2023-03-04T05:19:57;205.50;2252.80
54796;DHT22;40693;43.884;20.340;2023-03-04T05:22:22;205.50;2252.80
54796;DHT22;40693;43.884;20.340;2023-03-04T05:24:48;205.50;2252.80
54796;DHT22;40693;43.884;20.340;2023-03-04T05:27:16;205.50;2252.80
54796;DHT22;40693;43.884;20.340;2023-03-04T05:29:45;205.50;2252.80
54796;DHT22;40693;43.884;20.340;2023-03-04T05:32:17;205.50;2252.80
54796;DHT22;40693;43.884;20.340;2023-03-04T05:34:52;205.50;2252.80
54796;DHT22;40693;43.884;20.340;2023-03-04T05:37:21;230.50;2252.80
54796;DHT22;40693;43.884;20.340;2023-03-04T05:39:47;205.50;2252.80
54796;DHT22;40693;43.884;20.340;2023-03-04T05:42:13;205.40;2252.80
54796;DHT22;40693;43.884;20.340;2023-03-04T05:44:39;205.60;2252.80
54796;DHT22;40693;43.884;20.340;2023-03-04T05:47:04;205.60;2252.80
54796;DHT22;40693;43.884;20.340;2023-03-04T05:49:30;205.70;2252.80
54796;DHT22;40693;43.884;20.340;2023-03-04T05:51:56;205.70;2252.80
54796;DHT22;40693;43.884;20.340;2023-03-04T05:54:22;205.70;2252.80
54796;DHT22;40693;43.884;20.340;2023-03-04T05:56:47;205.70;2252.80
54796;DHT22;40693;43.884;20.340;2023-03-04T05:59:19;230.40;2252.80
54796;DHT22;40693;43.884;20.340;2023-03-04T06:01:48;230.40;2252.80
54796;DHT22;40693;43.884;20.340;2023-03-04T06:04:17;205.70;2252.80
54796;DHT22;40693;43.884;20.340;2023-03-04T06:06:43;205.70;2252.80
54796;DHT22;40693;43.884;20.340;2023-03-04T06:09:11;205.70;2252.80
54796;DHT22;40693;43.884;20.340;2023-03-04T06:11:37;230.40;2252.80
54796;DHT22;40693;43.884;20.340;2023-03-04T06:14:03;230.40;2252.80
54796;DHT22;40693;43.884;20.340;2023-03-04T06:16:29;230.40;2252.80
54796;DHT22;40693;43.884;20.340;2023-03-04T06:18:58;230.40;2252.80
54796;DHT22;40693;43.884;20.340;2023-03-04T06:21:24;230.40;2252.80
54796;DHT22;40693;43.884;20.340;2023-03-04T06:23:49;230.40;2252.80
54796;DHT22;40693;43.884;20.340;2023-03-04T06:26:15;205.70;2252.80
54796;DHT22;40693;43.884;20.340;2023-03-04T06:28:41;205.70;2252.80
54796;DHT22;40693;43.884;20.340;2023-03-04T06:31:10;230.40;2252.80
54796;DHT22;40693;43.884;20.340;2023-03-04T06:33:36;230.40;2252.80
54796;DHT22;40693;43.884;20.340;2023-03-04T06:36:02;230.40;2252.80
54796;DHT22;40693;43.884;20.340;2023-03-04T06:38:28;230.40;2252.80
54796;DHT22;40693;43.884;20.340;2023-03-04T06:40:54;230.50;2252.80
54796;DHT22;40693;43.884;20.340;2023-03-04T06:43:20;230.50;2252.80
54796;DHT22;40693;43.884;20.340;2023-03-04T06:45:46;230.50;2252.80
54796;DHT22;40693;43.884;20.340;2023-03-04T06:48:11;230.50;2252.80
54796;DHT22;40693;43.884;20.340;2023-03-04T06:50:43;230.50;2252.80
54796;DHT22;40693;43.884;20.340;2023-03-04T06:53:09;230.50;2252.80
54796;DHT22;40693;43.884;20.340;2023-03-04T06:55:35;230.50;2252.80
54796;DHT22;40693;43.884;20.340;2023-03-04T06:58:00;230.50;2252.80
54796;DHT22;40693;43.884;20.340;2023-03-04T07:00:26;230.50;2252.80
54796;DHT22;40693;43.884;20.340;2023-03-04T07:02:52;230.60;2252.80
54796;DHT22;40693;43.884;20.340;2023-03-04T07:05:18;230.60;2252.80
54796;DHT22;40693;43.884;20.340;2023-03-04T07:07:43;230.60;2252.80
54796;DHT22;40693;43.884;20.340;2023-03-04T07:10:12;230.60;2252.80
54796;DHT22;40693;43.884;20.340;2023-03-04T07:12:38;230.60;2252.80
54796;DHT22;40693;43.884;20.340;2023-03-04T07:15:04;230.70;2252.80
54796;DHT22;40693;43.884;20.340;2023-03-04T07:17:30;230.70;2252.80
54796;DHT22;40693;43.884;20.340;2023-03-04T07:19:56;230.60;2252.80
54796;DHT22;40693;43.884;20.340;2023-03-04T07:22:21;230.50;2252.80
54796;DHT22;40693;43.884;20.340;2023-03-04T07:24:47;230.50;2252.80
54796;DHT22;40693;43.884;20.340;2023-03-04T07:27:13;230.50;2252.80
54796;DHT22;40693;43.884;20.340;2023-03-04T07:29:39;230.50;2252.80
54796;DHT22;40693;43.884;20.340;2023-03-04T07:32:08;230.50;2252.80
54796;DHT22;40693;43.884;20.340;2023-03-04T07:34:34;230.50;2252.80
54796;DHT22;40693;43.884;20.340;2023-03-04T07:37:03;230.70;2252.80
54796;DHT22;40693;43.884;20.340;2023-03-04T07:39:29;230.50;2252.80
54796;DHT22;40693;43.884;20.340;2023-03-04T07:41:55;230.40;2252.80
54796;DHT22;40693;43.884;20.340;2023-03-04T07:44:21;230.40;2252.80
54796;DHT22;40693;43.884;20.340;2023-03-04T07:46:47;230.40;2252.80
54796;DHT22;40693;43.884;20.340;2023-03-04T07:49:13;230.50;2252.80
54796;DHT22;40693;43.884;20.340;2023-03-04T07:51:39;230.40;2252.80
54796;DHT22;40693;43.884;20.340;2023-03-04T07:54:05;230.40;2252.80
54796;DHT22;40693;43.884;20.340;2023-03-04T07:56:32;230.50;2252.80
54796;DHT22;40693;43.884;20.340;2023-03-04T07:58:58;230.50;2252.80
54796;DHT22;40693;43.884;20.340;2023-03-04T08:01:33;230.40;2252.80
54796;DHT22;40693;43.884;20.340;2023-03-04T08:04:00;205.70;2252.80
54796;DHT22;40693;43.884;20.340;2023-03-04T08:06:26;205.70;2252.80
54796;DHT22;40693;43.884;20.340;2023-03-04T08:09:00;205.60;2252.80
54796;DHT22;40693;43.884;20.340;2023-03-04T08:11:27;205.70;2252.80
54796;DHT22;40693;43.884;20.340;2023-03-04T08:13:54;230.40;2252.80
54796;DHT22;40693;43.884;20.340;2023-03-04T08:16:21;230.50;2252.80
54796;DHT22;40693;43.884;20.340;2023-03-04T08:18:50;230.50;2252.80
54796;DHT22;40693;43.884;20.340;2023-03-04T08:21:18;230.40;2252.80
54796;DHT22;40693;43.884;20.340;2023-03-04T08:23:44;230.70;2252.80
54796;DHT22;40693;43.884;20.340;2023-03-04T08:26:13;230.70;2252.80
54796;DHT22;40693;43.884;20.340;2023-03-04T08:28:40;230.70;2252.80
54796;DHT22;40693;43.884;20.340;2023-03-04T08:31:07;230.80;2252.80
54796;DHT22;40693;43.884;20.340;2023-03-04T08:33:33;230.90;2252.80
54796;DHT22;40693;43.884;20.340;2023-03-04T08:35:59;230.90;2252.80
54796;DHT22;40693;43.884;20.340;2023-03-04T08:38:25;231.00;2252.80
54796;DHT22;40693;43.884;20.340;2023-03-04T08:40:55;231.10;2252.80
54796;DHT22;40693;43.884;20.340;2023-03-04T08:43:22;231.20;2252.80
54796;DHT22;40693;43.884;20.340;2023-03-04T08:45:48;231.10;2252.80
54796;DHT22;40693;43.884;20.340;2023-03-04T08:48:14;231.20;2252.80
54796;DHT22;40693;43.884;20.340;2023-03-04T08:50:41;231.20;2252.80
54796;DHT22;40693;43.884;20.340;2023-03-04T08:53:08;231.30;2252.80
54796;DHT22;40693;43.884;20.340;2023-03-04T08:55:34;256.00;2252.80
54796;DHT22;40693;43.884;20.340;2023-03-04T08:57:59;256.00;2252.80
54796;DHT22;40693;43.884;20.340;2023-03-04T09:00:26;256.00;2252.80
54796;DHT22;40693;43.884;20.340;2023-03-04T09:02:52;256.10;2252.80
54796;DHT22;40693;43.884;20.340;2023-03-04T09:05:20;256.20;2252.80
54796;DHT22;40693;43.884;20.340;2023-03-04T09:07:45;256.10;2252.80
54796;DHT22;40693;43.884;20.340;2023-03-04T09:10:12;256.20;2252.80
54796;DHT22;40693;43.884;20.340;2023-03-04T09:12:38;256.20;2252.80
54796;DHT22;40693;43.884;20.340;2023-03-04T09:15:04;256.30;2252.80
54796;DHT22;40693;43.884;20.340;2023-03-04T09:17:31;256.30;2252.80
54796;DHT22;40693;43.884;20.340;2023-03-04T09:19:57;256.40;2252.80
54796;DHT22;40693;43.884;20.340;2023-03-04T09:22:23;256.40;2252.80
54796;DHT22;40693;43.884;20.340;2023-03-04T09:24:49;256.50;2252.80
54796;DHT22;40693;43.884;20.340;2023-03-04T09:27:14;256.60;2252.80
54796;DHT22;40693;43.884;20.340;2023-03-04T09:29:40;256.70;2252.80
54796;DHT22;40693;43.884;20.340;2023-03-04T09:32:07;256.70;2252.80
54796;DHT22;40693;43.884;20.340;2023-03-04T09:34:33;256.70;2252.80
54796;DHT22;40693;43.884;20.340;2023-03-04T09:36:59;256.70;2252.80
54796;DHT22;40693;43.884;20.340;2023-03-04T09:39:25;256.80;2252.80
54796;DHT22;40693;43.884;20.340;2023-03-04T09:41:54;256.90;2252.80
54796;DHT22;40693;43.884;20.340;2023-03-04T09:44:35;256.90;2252.80
54796;DHT22;40693;43.884;20.340;2023-03-04T09:47:09;281.60;2278.40
54796;DHT22;40693;43.884;20.340;2023-03-04T09:49:38;281.60;2278.40
54796;DHT22;40693;43.884;20.340;2023-03-04T09:52:22;281.70;2278.40
54796;DHT22;40693;43.884;20.340;2023-03-04T09:57:29;281.90;2278.40
54796;DHT22;40693;43.884;20.340;2023-03-04T10:05:22;282.00;2278.40
54796;DHT22;40693;43.884;20.340;2023-03-04T10:07:57;281.90;2278.40
54796;DHT22;40693;43.884;20.340;2023-03-04T10:10:31;281.90;2278.40
54796;DHT22;40693;43.884;20.340;2023-03-04T10:13:00;282.00;2278.40
54796;DHT22;40693;43.884;20.340;2023-03-04T10:15:37;282.00;2278.40
54796;DHT22;40693;43.884;20.340;2023-03-04T10:18:17;282.10;2278.40
54796;DHT22;40693;43.884;20.340;2023-03-04T10:20:51;282.20;2278.40
54796;DHT22;40693;43.884;20.340;2023-03-04T10:23:22;282.30;2278.40
54796;DHT22;40693;43.884;20.340;2023-03-04T10:25:52;282.30;2278.40
54796;DHT22;40693;43.884;20.340;2023-03-04T10:28:28;282.30;2278.40
54796;DHT22;40693;43.884;20.340;2023-03-04T10:31:20;282.50;2278.40
54796;DHT22;40693;43.884;20.340;2023-03-04T10:33:51;282.40;2278.40
54796;DHT22;40693;43.884;20.340;2023-03-04T10:39:17;282.30;2278.40
54796;DHT22;40693;43.884;20.340;2023-03-04T10:41:45;282.20;2278.40
54796;DHT22;40693;43.884;20.340;2023-03-04T10:44:18;282.30;2278.40
54796;DHT22;40693;43.884;20.340;2023-03-04T10:46:46;282.30;2278.40
54796;DHT22;40693;43.884;20.340;2023-03-04T10:49:15;282.40;2278.40
54796;DHT22;40693;43.884;20.340;2023-03-04T10:51:50;282.40;2278.40
54796;DHT22;40693;43.884;20.340;2023-03-04T10:54:40;282.50;2278.40
54796;DHT22;40693;43.884;20.340;2023-03-04T10:57:19;282.50;2278.40
54796;DHT22;40693;43.884;20.340;2023-03-04T10:59:57;282.50;2278.40
54796;DHT22;40693;43.884;20.340;2023-03-04T11:02:31;282.50;2278.40
54796;DHT22;40693;43.884;20.340;2023-03-04T11:07:38;307.40;2304.00
54796;DHT22;40693;43.884;20.340;2023-03-04T11:12:50;307.30;2304.00
54796;DHT22;40693;43.884;20.340;2023-03-04T11:15:24;307.40;2304.00
54796;DHT22;40693;43.884;20.340;2023-03-04T11:18:19;307.40;2304.00
54796;DHT22;40693;43.884;20.340;2023-03-04T11:20:48;307.40;2304.00
54796;DHT22;40693;43.884;20.340;2023-03-04T11:23:28;307.40;2304.00
54796;DHT22;40693;43.884;20.340;2023-03-04T11:26:07;307.40;2304.00
54796;DHT22;40693;43.884;20.340;2023-03-04T11:28:53;307.40;2304.00
54796;DHT22;40693;43.884;20.340;2023-03-04T11:31:32;307.30;2304.00
54796;DHT22;40693;43.884;20.340;2023-03-04T11:34:21;307.30;2304.00
54796;DHT22;40693;43.884;20.340;2023-03-04T11:39:51;307.20;2304.00
54796;DHT22;40693;43.884;20.340;2023-03-04T11:45:24;307.20;2304.00
54796;DHT22;40693;43.884;20.340;2023-03-04T11:48:11;307.20;2304.00
54796;DHT22;40693;43.884;20.340;2023-03-04T11:50:46;307.20;2304.00
54796;DHT22;40693;43.884;20.340;2023-03-04T11:53:15;307.20;2304.00
54796;DHT22;40693;43.884;20.340;2023-03-04T12:01:25;282.20;2278.40
54796;DHT22;40693;43.884;20.340;2023-03-04T12:29:50;281.70;2278.40
54796;DHT22;40693;43.884;20.340;2023-03-04T12:40:34;281.90;2278.40
54796;DHT22;40693;43.884;20.340;2023-03-04T12:43:29;281.90;2278.40
54796;DHT22;40693;43.884;20.340;2023-03-04T12:49:13;282.10;2278.40
54796;DHT22;40693;43.884;20.340;2023-03-04T12:57:23;282.10;2278.40
54796;DHT22;40693;43.884;20.340;2023-03-04T13:05:50;282.00;2278.40
54796;DHT22;40693;43.884;20.340;2023-03-04T13:17:00;282.20;2278.40
54796;DHT22;40693;43.884;20.340;2023-03-04T13:24:51;282.30;2278.40
54796;DHT22;40693;43.884;20.340;2023-03-04T13:27:46;282.30;2278.40
54796;DHT22;40693;43.884;20.340;2023-03-04T13:32:57;282.50;2278.40
54796;DHT22;40693;43.884;20.340;2023-03-04T13:56:43;282.50;2278.40
54796;DHT22;40693;43.884;20.340;2023-03-04T13:59:31;282.50;2278.40
54796;DHT22;40693;43.884;20.340;2023-03-04T14:02:01;282.50;2278.40
54796;DHT22;40693;43.884;20.340;2023-03-04T14:04:35;282.40;2278.40
54796;DHT22;40693;43.884;20.340;2023-03-04T14:07:16;282.50;2278.40
54796;DHT22;40693;43.884;20.340;2023-03-04T14:09:53;282.50;2278.40
54796;DHT22;40693;43.884;20.340;2023-03-04T14:12:20;282.50;2278.40
54796;DHT22;40693;43.884;20.340;2023-03-04T14:14:51;282.30;2278.40
54796;DHT22;40693;43.884;20.340;2023-03-04T14:17:30;282.50;2278.40
54796;DHT22;40693;43.884;20.340;2023-03-04T14:19:57;307.20;2304.00
54796;DHT22;40693;43.884;20.340;2023-03-04T14:22:32;282.50;2278.40
54796;DHT22;40693;43.884;20.340;2023-03-04T14:25:01;282.50;2278.40
54796;DHT22;40693;43.884;20.340;2023-03-04T14:27:29;282.50;2278.40
54796;DHT22;40693;43.884;20.340;2023-03-04T14:29:59;282.50;2278.40
54796;DHT22;40693;43.884;20.340;2023-03-04T14:32:26;307.30;2304.00
54796;DHT22;40693;43.884;20.340;2023-03-04T14:35:00;307.20;2304.00
54796;DHT22;40693;43.884;20.340;2023-03-04T14:37:34;307.20;2304.00
54796;DHT22;40693;43.884;20.340;2023-03-04T14:40:01;282.50;2278.40
54796;DHT22;40693;43.884;20.340;2023-03-04T14:42:36;282.50;2278.40
54796;DHT22;40693;43.884;20.340;2023-03-04T14:45:04;282.50;2278.40
54796;DHT22;40693;43.884;20.340;2023-03-04T14:47:38;282.40;2278.40
54796;DHT22;40693;43.884;20.340;2023-03-04T14:50:09;282.50;2278.40
54796;DHT22;40693;43.884;20.340;2023-03-04T14:52:38;282.40;2278.40
54796;DHT22;40693;43.884;20.340;2023-03-04T14:57:40;282.30;2278.40
54796;DHT22;40693;43.884;20.340;2023-03-04T15:00:26;282.40;2278.40
54796;DHT22;40693;43.884;20.340;2023-03-04T15:02:56;282.40;2278.40
54796;DHT22;40693;43.884;20.340;2023-03-04T15:05:31;282.30;2278.40
54796;DHT22;40693;43.884;20.340;2023-03-04T15:08:03;282.30;2278.40
54796;DHT22;40693;43.884;20.340;2023-03-04T15:10:36;282.30;2278.40
54796;DHT22;40693;43.884;20.340;2023-03-04T15:13:04;282.30;2278.40
54796;DHT22;40693;43.884;20.340;2023-03-04T15:18:22;282.40;2278.40
54796;DHT22;40693;43.884;20.340;2023-03-04T15:20:56;282.30;2278.40
54796;DHT22;40693;43.884;20.340;2023-03-04T15:23:22;282.30;2278.40
54796;DHT22;40693;43.884;20.340;2023-03-04T15:25:53;282.40;2278.40
54796;DHT22;40693;43.884;20.340;2023-03-04T15:28:20;282.40;2278.40
54796;DHT22;40693;43.884;20.340;2023-03-04T15:30:46;282.50;2278.40
54796;DHT22;40693;43.884;20.340;2023-03-04T15:33:12;282.50;2278.40
54796;DHT22;40693;43.884;20.340;2023-03-04T15:35:45;282.50;2278.40
54796;DHT22;40693;43.884;20.340;2023-03-04T15:38:11;282.50;2278.40
54796;DHT22;40693;43.884;20.340;2023-03-04T15:40:39;282.50;2278.40
54796;DHT22;40693;43.884;20.340;2023-03-04T15:43:15;282.50;2278.40
54796;DHT22;40693;43.884;20.340;2023-03-04T15:45:41;282.50;2278.40
54796;DHT22;40693;43.884;20.340;2023-03-04T15:48:12;282.30;2278.40
54796;DHT22;40693;43.884;20.340;2023-03-04T15:50:48;282.20;2278.40
54796;DHT22;40693;43.884;20.340;2023-03-04T15:53:24;282.10;2278.40
54796;DHT22;40693;43.884;20.340;2023-03-04T15:55:51;282.10;2278.40
54796;DHT22;40693;43.884;20.340;2023-03-04T15:58:17;282.10;2278.40
54796;DHT22;40693;43.884;20.340;2023-03-04T16:00:43;282.20;2278.40
54796;DHT22;40693;43.884;20.340;2023-03-04T16:03:14;282.20;2278.40
54796;DHT22;40693;43.884;20.340;2023-03-04T16:05:42;282.20;2278.40
54796;DHT22;40693;43.884;20.340;2023-03-04T16:08:13;282.30;2278.40
54796;DHT22;40693;43.884;20.340;2023-03-04T16:10:40;282.30;2278.40
54796;DHT22;40693;43.884;20.340;2023-03-04T16:13:20;282.20;2278.40
54796;DHT22;40693;43.884;20.340;2023-03-04T16:15:47;282.20;2278.40
54796;DHT22;40693;43.884;20.340;2023-03-04T16:18:14;282.20;2278.40
54796;DHT22;40693;43.884;20.340;2023-03-04T16:20:43;282.20;2278.40
54796;DHT22;40693;43.884;20.340;2023-03-04T16:23:13;282.20;2278.40
54796;DHT22;40693;43.884;20.340;2023-03-04T16:25:42;282.20;2278.40
54796;DHT22;40693;43.884;20.340;2023-03-04T16:28:10;282.20;2278.40
54796;DHT22;40693;43.884;20.340;2023-03-04T16:30:36;282.30;2278.40
54796;DHT22;40693;43.884;20.340;2023-03-04T16:33:02;282.30;2278.40
54796;DHT22;40693;43.884;20.340;2023-03-04T16:35:28;282.30;2278.40
54796;DHT22;40693;43.884;20.340;2023-03-04T16:37:55;282.20;2278.40
54796;DHT22;40693;43.884;20.340;2023-03-04T16:40:27;282.20;2278.40
54796;DHT22;40693;43.884;20.340;2023-03-04T16:42:57;282.20;2278.40
54796;DHT22;40693;43.884;20.340;2023-03-04T16:45:25;282.20;2278.40
54796;DHT22;40693;43.884;20.340;2023-03-04T16:47:52;282.10;2278.40
54796;DHT22;40693;43.884;20.340;2023-03-04T16:50:20;282.10;2278.40